createdAt,value
2019-02-12T00:00:59.270Z,10.45
2019-02-12T00:03:26.490Z,10.15
2019-02-12T00:05:55.327Z,11.28
2019-02-12T00:08:24.356Z,5.90
2019-02-12T00:10:52.350Z,8.68
2019-02-12T00:13:20.111Z,9.63
2019-02-12T00:15:48.646Z,10.15
2019-02-12T00:18:17.713Z,6.65
2019-02-12T00:20:45.414Z,12.45
2019-02-12T00:23:13.614Z,6.83
2019-02-12T00:25:42.434Z,8.73
2019-02-12T00:28:10.902Z,8.93
2019-02-12T00:30:39.983Z,11.30
2019-02-12T00:33:07.466Z,12.37
2019-02-12T00:35:35.563Z,12.58
2019-02-12T00:38:04.024Z,8.13
2019-02-12T00:40:31.330Z,13.83
2019-02-12T00:42:59.568Z,11.75
2019-02-12T00:45:27.822Z,11.55
2019-02-12T00:47:56.101Z,11.33
2019-02-12T00:50:24.173Z,11.65
2019-02-12T00:52:52.534Z,8.75
2019-02-12T00:55:19.705Z,14.85
2019-02-12T00:57:48.104Z,14.05
2019-02-12T01:00:16.395Z,19.17
2019-02-12T01:02:44.944Z,15.00
2019-02-12T01:05:13.206Z,7.67
2019-02-12T01:07:41.502Z,14.00
2019-02-12T01:10:09.730Z,16.32
2019-02-12T01:12:37.886Z,16.20
2019-02-12T01:15:08.342Z,11.80
2019-02-12T01:17:35.639Z,9.50
2019-02-12T01:20:06.010Z,12.40
2019-02-12T01:22:33.428Z,20.75
2019-02-12T01:25:00.802Z,14.68
2019-02-12T01:27:30.927Z,8.10
2019-02-12T01:29:58.509Z,12.00
2019-02-12T01:32:25.922Z,16.77
2019-02-12T01:34:54.586Z,14.87
2019-02-12T01:37:23.444Z,8.13
2019-02-12T01:39:52.150Z,15.70
2019-02-12T01:42:20.635Z,16.45
2019-02-12T01:44:49.888Z,11.18
2019-02-12T01:47:17.894Z,14.70
2019-02-12T01:49:46.159Z,15.18
2019-02-12T01:52:13.923Z,9.00
2019-02-12T01:54:42.398Z,9.63
2019-02-12T01:57:10.674Z,9.93
2019-02-12T01:59:38.824Z,13.48
2019-02-12T02:02:07.101Z,14.30
2019-02-12T02:04:35.278Z,13.28
2019-02-12T02:07:03.450Z,14.40
2019-02-12T02:09:30.674Z,14.53
2019-02-12T02:11:58.718Z,11.93
2019-02-12T02:14:26.695Z,18.80
2019-02-12T02:16:54.680Z,15.03
2019-02-12T02:19:25.594Z,10.75
2019-02-12T02:21:56.556Z,14.70
2019-02-12T02:24:24.538Z,12.60
2019-02-12T02:26:52.922Z,9.53
2019-02-12T02:29:21.710Z,23.05
2019-02-12T02:31:49.979Z,11.65
2019-02-12T02:34:18.279Z,13.48
2019-02-12T02:36:46.742Z,16.00
2019-02-12T02:39:14.910Z,10.48
2019-02-12T02:41:44.958Z,14.43
2019-02-12T02:44:12.226Z,13.80
2019-02-12T02:46:39.340Z,12.18
2019-02-12T02:49:07.490Z,11.38
2019-02-12T02:51:36.366Z,11.83
2019-02-12T02:54:04.086Z,12.40
2019-02-12T02:56:32.894Z,16.42
2019-02-12T02:59:00.547Z,13.30
2019-02-12T03:01:29.076Z,19.57
2019-02-12T03:03:58.347Z,19.62
2019-02-12T03:06:26.507Z,14.68
2019-02-12T03:08:54.346Z,13.55
2019-02-12T03:11:26.198Z,12.37
2019-02-12T03:13:55.553Z,20.40
2019-02-12T03:16:24.071Z,16.07
2019-02-12T03:18:52.727Z,28.57
2019-02-12T03:21:21.684Z,16.87
2019-02-12T03:23:48.683Z,21.15
2019-02-12T03:26:17.141Z,18.75
2019-02-12T03:28:45.875Z,14.07
2019-02-12T03:31:14.607Z,21.70
2019-02-12T03:33:42.262Z,13.32
2019-02-12T03:36:10.955Z,18.67
2019-02-12T03:38:44.446Z,16.55
2019-02-12T03:41:12.546Z,14.43
2019-02-12T03:43:40.183Z,15.75
2019-02-12T03:46:07.891Z,19.45
2019-02-12T03:48:35.743Z,25.92
2019-02-12T03:51:03.175Z,21.50
2019-02-12T03:53:31.974Z,20.85
2019-02-12T03:56:00.271Z,21.17
2019-02-12T03:58:28.710Z,16.30
2019-02-12T04:00:55.977Z,14.83
2019-02-12T04:03:24.252Z,18.42
2019-02-12T04:05:52.431Z,20.72
2019-02-12T04:08:20.705Z,15.35
2019-02-12T04:10:48.777Z,14.75
2019-02-12T04:13:16.939Z,22.90
2019-02-12T04:15:47.510Z,16.70
2019-02-12T04:18:15.543Z,26.15
2019-02-12T04:20:44.271Z,16.35
2019-02-12T04:23:11.995Z,19.98
2019-02-12T04:25:40.865Z,17.17
2019-02-12T04:28:09.318Z,18.65
2019-02-12T04:30:38.351Z,16.95
2019-02-12T04:33:06.628Z,18.02
2019-02-12T04:35:35.421Z,17.32
2019-02-12T04:38:04.587Z,23.45
2019-02-12T04:40:33.306Z,24.10
2019-02-12T04:43:01.692Z,17.30
2019-02-12T04:45:30.469Z,22.02
2019-02-12T04:47:59.226Z,20.72
2019-02-12T04:50:28.160Z,23.77
2019-02-12T04:52:56.601Z,25.40
2019-02-12T04:55:25.028Z,20.12
2019-02-12T04:57:53.910Z,23.30
2019-02-12T05:00:22.690Z,18.15
2019-02-12T05:02:51.687Z,24.23
2019-02-12T05:05:20.066Z,20.68
2019-02-12T05:07:49.343Z,21.82
2019-02-12T05:10:18.766Z,23.05
2019-02-12T05:12:47.271Z,22.80
2019-02-12T05:15:15.735Z,21.05
2019-02-12T05:17:44.476Z,24.35
2019-02-12T05:20:12.494Z,24.87
2019-02-12T05:22:43.508Z,21.75
2019-02-12T05:25:12.887Z,18.77
2019-02-12T05:27:40.860Z,22.30
2019-02-12T05:30:09.387Z,21.68
2019-02-12T05:32:37.964Z,16.82
2019-02-12T05:35:07.881Z,14.23
2019-02-12T05:37:36.356Z,20.90
2019-02-12T05:40:05.566Z,19.60
2019-02-12T05:42:33.717Z,17.80
2019-02-12T05:45:02.631Z,25.08
2019-02-12T05:47:30.878Z,22.60
2019-02-12T05:49:59.426Z,20.85
2019-02-12T05:52:28.279Z,21.87
2019-02-12T05:54:56.140Z,18.25
2019-02-12T05:57:28.096Z,19.45
2019-02-12T05:59:55.278Z,21.33
2019-02-12T06:02:24.036Z,13.50
2019-02-12T06:04:53.044Z,20.60
2019-02-12T06:07:21.538Z,14.65
2019-02-12T06:09:50.714Z,17.55
2019-02-12T06:12:19.108Z,25.92
2019-02-12T06:14:47.460Z,20.15
2019-02-12T06:17:15.867Z,21.10
2019-02-12T06:19:44.497Z,26.90
2019-02-12T06:22:13.252Z,18.23
2019-02-12T06:24:41.825Z,15.45
2019-02-12T06:27:10.591Z,19.82
2019-02-12T06:29:39.381Z,17.40
2019-02-12T06:32:08.478Z,15.13
2019-02-12T06:34:37.074Z,23.22
2019-02-12T06:37:05.671Z,24.60
2019-02-12T06:39:34.436Z,19.40
2019-02-12T06:42:03.023Z,16.90
2019-02-12T06:44:31.314Z,23.95
2019-02-12T06:46:58.614Z,16.97
2019-02-12T06:49:27.376Z,16.15
2019-02-12T06:51:55.721Z,20.92
2019-02-12T06:54:24.707Z,19.40
2019-02-12T06:56:52.483Z,20.37
2019-02-12T06:59:20.758Z,23.15
2019-02-12T07:01:47.714Z,19.80
2019-02-12T07:04:27.937Z,17.87
2019-02-12T07:07:26.131Z,29.18
2019-02-12T07:10:05.886Z,20.02
2019-02-12T07:13:27.291Z,15.95
2019-02-12T07:16:06.226Z,16.05
2019-02-12T07:19:36.872Z,18.80
2019-02-12T07:22:41.177Z,26.25
2019-02-12T07:25:46.184Z,20.27
2019-02-12T07:28:41.177Z,20.45
2019-02-12T07:31:37.334Z,18.45
2019-02-12T07:34:47.954Z,18.50
2019-02-12T07:37:46.365Z,30.40
2019-02-12T07:41:20.140Z,16.15
2019-02-12T07:44:25.234Z,16.00
2019-02-12T07:47:51.235Z,19.90
2019-02-12T07:51:06.870Z,18.25
2019-02-12T07:54:26.225Z,21.35
2019-02-12T07:57:35.419Z,20.15
2019-02-12T08:00:43.395Z,17.42
2019-02-12T08:03:35.026Z,15.15
2019-02-12T08:06:15.086Z,17.57
2019-02-12T08:09:20.770Z,20.32
2019-02-12T08:12:37.590Z,28.60
2019-02-12T08:15:40.887Z,18.45
2019-02-12T08:18:35.915Z,25.25
2019-02-12T08:21:31.354Z,21.85
2019-02-12T08:24:40.258Z,23.75
2019-02-12T08:27:53.792Z,24.18
2019-02-12T08:30:35.102Z,19.35
2019-02-12T08:33:45.361Z,15.70
2019-02-12T08:36:32.483Z,21.77
2019-02-12T08:39:26.983Z,24.75
2019-02-12T08:42:20.137Z,20.62
2019-02-12T08:45:27.933Z,24.77
2019-02-12T08:48:20.278Z,16.30
2019-02-12T08:51:11.518Z,21.25
2019-02-12T08:54:05.463Z,22.42
2019-02-12T08:56:58.519Z,18.32
2019-02-12T08:59:36.690Z,21.73
2019-02-12T09:02:16.154Z,24.90
2019-02-12T09:05:06.012Z,21.30
2019-02-12T09:07:59.194Z,19.87
2019-02-12T09:11:05.803Z,18.75
2019-02-12T09:14:16.660Z,24.92
2019-02-12T09:17:29.850Z,20.15
2019-02-12T09:20:19.386Z,25.62
2019-02-12T09:23:27.664Z,20.23
2019-02-12T09:26:20.026Z,20.32
2019-02-12T09:29:36.741Z,23.62
2019-02-12T09:33:00.301Z,17.77
2019-02-12T09:35:45.590Z,19.12
2019-02-12T09:39:10.148Z,22.62
2019-02-12T09:42:10.375Z,18.98
2019-02-12T09:45:11.611Z,25.72
2019-02-12T09:48:07.133Z,21.52
2019-02-12T09:51:25.867Z,21.35
2019-02-12T09:54:29.585Z,21.57
2019-02-12T09:57:21.398Z,20.97
2019-02-12T10:00:40.396Z,24.50
2019-02-12T10:04:01.888Z,33.60
2019-02-12T10:07:00.280Z,30.55
2019-02-12T10:09:50.994Z,21.45
2019-02-12T10:12:44.650Z,24.32
2019-02-12T10:16:03.923Z,21.42
2019-02-12T10:19:23.528Z,33.73
2019-02-12T10:22:26.126Z,22.95
2019-02-12T10:25:12.350Z,23.12
2019-02-12T10:28:20.066Z,24.57
2019-02-12T10:31:16.202Z,24.98
2019-02-12T10:33:44.609Z,20.08
2019-02-12T10:36:12.766Z,18.45
2019-02-12T10:38:40.938Z,21.85
2019-02-12T10:41:12.375Z,23.77
2019-02-12T10:43:40.619Z,26.27
2019-02-12T10:46:08.897Z,19.65
2019-02-12T10:48:37.231Z,21.20
2019-02-12T10:51:05.424Z,21.93
2019-02-12T10:53:36.230Z,15.35
2019-02-12T10:56:04.737Z,18.98
2019-02-12T10:58:32.801Z,23.05
2019-02-12T11:01:01.050Z,16.62
2019-02-12T11:03:29.224Z,28.00
2019-02-12T11:06:02.198Z,13.75
2019-02-12T11:08:30.557Z,19.73
2019-02-12T11:10:58.824Z,25.00
2019-02-12T11:13:27.000Z,26.25
2019-02-12T11:15:55.267Z,22.93
2019-02-12T11:18:27.677Z,19.15
2019-02-12T11:20:55.925Z,18.45
2019-02-12T11:23:24.147Z,19.95
2019-02-12T11:25:52.417Z,19.80
2019-02-12T11:28:20.906Z,20.48
2019-02-12T11:30:50.573Z,22.05
2019-02-12T11:33:18.827Z,18.02
2019-02-12T11:35:47.101Z,13.60
2019-02-12T11:38:15.405Z,18.75
2019-02-12T11:40:43.635Z,25.12
2019-02-12T11:43:16.214Z,19.60
2019-02-12T11:45:43.522Z,19.57
2019-02-12T11:48:11.121Z,24.98
2019-02-12T11:50:39.316Z,21.15
2019-02-12T11:53:06.385Z,15.53
2019-02-12T11:55:41.069Z,18.82
2019-02-12T11:58:08.345Z,20.43
2019-02-12T12:00:40.782Z,20.12
2019-02-12T12:03:08.748Z,19.85
2019-02-12T12:05:41.625Z,19.87
2019-02-12T12:08:09.790Z,17.60
2019-02-12T12:10:37.957Z,29.45
2019-02-12T12:13:06.130Z,19.00
2019-02-12T12:15:34.342Z,19.57
2019-02-12T12:18:04.561Z,21.68
2019-02-12T12:20:32.728Z,17.42
2019-02-12T12:23:00.936Z,19.85
2019-02-12T12:25:29.093Z,18.37
2019-02-12T12:27:58.094Z,14.87
2019-02-12T12:30:26.462Z,16.25
2019-02-12T12:32:58.513Z,14.75
2019-02-12T12:35:25.693Z,15.93
2019-02-12T12:37:55.712Z,21.55
2019-02-12T12:40:22.770Z,17.02
2019-02-12T12:42:51.021Z,13.78
2019-02-12T12:45:22.865Z,16.37
2019-02-12T12:47:51.790Z,18.07
2019-02-12T12:50:20.053Z,17.20
2019-02-12T12:52:48.451Z,16.27
2019-02-12T12:55:16.729Z,16.40
2019-02-12T12:57:47.710Z,22.67
2019-02-12T13:00:16.499Z,19.17
2019-02-12T13:02:45.236Z,15.90
2019-02-12T13:05:13.560Z,16.40
2019-02-12T13:07:41.874Z,23.87
2019-02-12T13:10:19.142Z,21.07
2019-02-12T13:12:46.307Z,18.42
2019-02-12T13:15:13.479Z,24.27
2019-02-12T13:17:40.801Z,21.23
2019-02-12T13:20:15.961Z,16.23
2019-02-12T13:22:44.203Z,20.50
2019-02-12T13:25:12.691Z,23.80
2019-02-12T13:27:41.397Z,21.25
2019-02-12T13:30:11.598Z,19.73
2019-02-12T13:32:41.398Z,18.87
2019-02-12T13:35:09.738Z,18.70
2019-02-12T13:37:38.275Z,17.75
2019-02-12T13:40:08.491Z,18.07
2019-02-12T13:42:38.192Z,16.93
2019-02-12T13:45:12.118Z,19.77
2019-02-12T13:47:39.987Z,18.00
2019-02-12T13:50:08.054Z,25.92
2019-02-12T13:52:36.346Z,21.70
2019-02-12T13:55:16.884Z,17.15
2019-02-12T13:57:40.266Z,12.60
2019-02-12T14:00:10.754Z,12.98
2019-02-12T14:02:38.553Z,20.45
2019-02-12T14:05:12.377Z,17.90
2019-02-12T14:07:40.029Z,18.77
2019-02-12T14:10:09.655Z,15.40
2019-02-12T14:12:37.090Z,15.38
2019-02-12T14:15:05.115Z,18.52
2019-02-12T14:17:34.418Z,16.67
2019-02-12T14:20:02.226Z,12.43
2019-02-12T14:22:29.947Z,15.45
2019-02-12T14:24:57.344Z,11.20
2019-02-12T14:27:24.700Z,15.13
2019-02-12T14:29:59.206Z,12.37
2019-02-12T14:32:26.766Z,14.58
2019-02-12T14:34:55.466Z,19.02
2019-02-12T14:37:25.583Z,14.28
2019-02-12T14:39:52.653Z,13.88
2019-02-12T14:42:24.072Z,17.67
2019-02-12T14:44:51.498Z,14.13
2019-02-12T14:47:19.027Z,16.17
2019-02-12T14:49:47.004Z,11.20
2019-02-12T14:52:14.620Z,16.97
2019-02-12T14:54:52.115Z,15.70
2019-02-12T14:57:19.588Z,9.40
2019-02-12T14:59:47.105Z,16.55
2019-02-12T15:02:14.653Z,18.62
2019-02-12T15:04:43.015Z,14.80
2019-02-12T15:07:10.402Z,13.25
2019-02-12T15:09:38.014Z,11.50
2019-02-12T15:12:07.809Z,17.17
2019-02-12T15:14:35.470Z,10.18
2019-02-12T15:17:04.171Z,11.48
2019-02-12T15:19:32.284Z,12.82
2019-02-12T15:21:59.653Z,12.37
2019-02-12T15:24:26.814Z,14.53
2019-02-12T15:26:54.290Z,13.93
2019-02-12T15:29:22.484Z,14.63
2019-02-12T15:31:50.229Z,12.05
2019-02-12T15:34:21.338Z,11.53
2019-02-12T15:36:50.163Z,15.10
2019-02-12T15:39:18.751Z,12.07
2019-02-12T15:41:47.362Z,13.65
2019-02-12T15:44:16.221Z,10.78
2019-02-12T15:46:48.327Z,13.08
2019-02-12T15:49:16.743Z,12.23
2019-02-12T15:51:45.563Z,12.35
2019-02-12T15:54:12.754Z,17.57
2019-02-12T15:56:41.657Z,13.40
2019-02-12T15:59:09.794Z,16.35
2019-02-12T16:01:39.490Z,15.53
2019-02-12T16:04:07.914Z,10.70
2019-02-12T16:06:36.345Z,14.78
2019-02-12T16:09:06.052Z,17.02
2019-02-12T16:11:34.583Z,13.00
2019-02-12T16:14:07.934Z,14.45
2019-02-12T16:16:35.206Z,12.35
2019-02-12T16:19:05.706Z,12.05
2019-02-12T16:21:34.195Z,16.10
2019-02-12T16:24:04.371Z,20.00
2019-02-12T16:26:34.935Z,18.82
2019-02-12T16:29:02.192Z,20.15
2019-02-12T16:31:31.091Z,21.33
2019-02-12T16:34:00.595Z,20.75
2019-02-12T16:36:28.497Z,14.40
2019-02-12T16:38:58.379Z,20.52
2019-02-12T16:41:26.877Z,13.88
2019-02-12T16:43:55.085Z,17.15
2019-02-12T16:46:23.474Z,18.98
2019-02-12T16:48:51.691Z,18.25
2019-02-12T16:51:21.978Z,17.85
2019-02-12T16:53:50.167Z,14.93
2019-02-12T16:56:18.466Z,21.73
2019-02-12T16:58:47.000Z,20.27
2019-02-12T17:01:15.423Z,22.50
2019-02-12T17:03:44.403Z,21.27
2019-02-12T17:06:11.955Z,19.15
2019-02-12T17:08:41.286Z,20.77
2019-02-12T17:11:08.359Z,20.52
2019-02-12T17:13:36.546Z,23.35
2019-02-12T17:16:06.290Z,18.85
2019-02-12T17:18:33.602Z,21.87
2019-02-12T17:21:03.793Z,16.90
2019-02-12T17:23:31.973Z,22.90
2019-02-12T17:26:00.348Z,20.97
2019-02-12T17:28:28.542Z,20.08
2019-02-12T17:30:58.288Z,19.57
2019-02-12T17:33:26.653Z,14.25
2019-02-12T17:35:55.303Z,18.95
2019-02-12T17:38:22.838Z,18.98
2019-02-12T17:40:50.994Z,17.90
2019-02-12T17:43:19.206Z,22.35
2019-02-12T17:45:46.768Z,17.45
2019-02-12T17:48:16.475Z,20.43
2019-02-12T17:50:44.654Z,19.30
2019-02-12T17:53:14.015Z,18.87
2019-02-12T17:55:41.175Z,19.67
2019-02-12T17:58:09.279Z,19.20
2019-02-12T18:00:41.590Z,21.00
2019-02-12T18:03:09.911Z,19.00
2019-02-12T18:05:38.132Z,21.60
2019-02-12T18:08:06.212Z,14.78
2019-02-12T18:10:34.375Z,20.35
2019-02-12T18:13:02.654Z,22.52
2019-02-12T18:15:31.017Z,20.27
2019-02-12T18:17:59.197Z,19.27
2019-02-12T18:20:28.057Z,18.40
2019-02-12T18:22:55.669Z,18.30
2019-02-12T18:25:25.901Z,20.27
2019-02-12T18:27:54.162Z,21.10
2019-02-12T18:30:21.763Z,18.32
2019-02-12T18:32:50.098Z,14.63
2019-02-12T18:35:18.430Z,22.05
2019-02-12T18:37:46.682Z,15.85
2019-02-12T18:40:15.087Z,20.72
2019-02-12T18:42:42.387Z,18.95
2019-02-12T18:45:11.929Z,20.75
2019-02-12T18:47:40.528Z,18.95
2019-02-12T18:50:09.988Z,18.57
2019-02-12T18:52:37.150Z,25.32
2019-02-12T18:55:05.775Z,23.15
2019-02-12T18:57:33.864Z,23.15
2019-02-12T19:00:02.127Z,21.05
2019-02-12T19:02:30.637Z,22.13
2019-02-12T19:04:57.771Z,22.82
2019-02-12T19:07:26.118Z,20.90
2019-02-12T19:09:54.335Z,19.60
2019-02-12T19:12:22.924Z,17.00
2019-02-12T19:14:50.280Z,21.60
2019-02-12T19:17:18.489Z,23.02
2019-02-12T19:19:46.997Z,21.25
2019-02-12T19:22:14.266Z,22.45
2019-02-12T19:24:42.504Z,19.57
2019-02-12T19:27:10.825Z,26.85
2019-02-12T19:29:39.021Z,20.72
2019-02-12T19:32:07.267Z,22.07
2019-02-12T19:34:35.642Z,22.93
2019-02-12T19:37:03.826Z,20.60
2019-02-12T19:39:32.091Z,21.62
2019-02-12T19:42:00.255Z,30.00
2019-02-12T19:44:28.261Z,21.97
2019-02-12T19:46:56.440Z,20.62
2019-02-12T19:49:24.506Z,19.65
2019-02-12T19:51:53.498Z,23.73
2019-02-12T19:54:22.098Z,22.95
2019-02-12T19:56:49.358Z,21.85
2019-02-12T19:59:17.730Z,17.17
2019-02-12T20:01:45.986Z,24.80
2019-02-12T20:04:14.323Z,25.35
2019-02-12T20:06:41.604Z,21.62
2019-02-12T20:09:17.383Z,21.68
2019-02-12T20:11:45.590Z,19.05
2019-02-12T20:14:14.060Z,18.77
2019-02-12T20:16:41.674Z,24.47
2019-02-12T20:19:09.978Z,20.35
2019-02-12T20:21:38.374Z,23.45
2019-02-12T20:24:05.551Z,18.07
2019-02-12T20:26:33.918Z,21.10
2019-02-12T20:29:02.106Z,21.87
2019-02-12T20:31:31.967Z,21.52
2019-02-12T20:33:59.297Z,21.77
2019-02-12T20:36:26.848Z,22.37
2019-02-12T20:38:55.392Z,20.27
2019-02-12T20:41:22.586Z,28.75
2019-02-12T20:43:51.042Z,22.40
2019-02-12T20:46:19.243Z,24.82
2019-02-12T20:48:47.455Z,23.05
2019-02-12T20:51:15.591Z,20.35
2019-02-12T20:53:43.878Z,23.18
2019-02-12T20:56:12.057Z,22.98
2019-02-12T20:58:57.818Z,28.45
2019-02-12T21:01:43.858Z,27.15
2019-02-12T21:04:29.655Z,27.00
2019-02-12T21:07:15.410Z,28.32
2019-02-12T21:09:51.530Z,30.48
2019-02-12T21:12:37.378Z,29.48
2019-02-12T21:15:23.046Z,27.00
2019-02-12T21:18:08.774Z,26.07
2019-02-12T21:20:37.202Z,25.20
2019-02-12T21:23:07.002Z,23.35
2019-02-12T21:25:34.610Z,21.40
2019-02-12T21:28:03.102Z,25.32
2019-02-12T21:30:31.362Z,23.77
2019-02-12T21:32:59.766Z,22.82
2019-02-12T21:35:28.239Z,26.05
2019-02-12T21:37:55.726Z,21.17
2019-02-12T21:40:24.195Z,23.20
2019-02-12T21:42:52.850Z,22.65
2019-02-12T21:45:21.134Z,24.18
2019-02-12T21:47:49.926Z,22.98
2019-02-12T21:50:21.962Z,23.75
2019-02-12T21:52:49.215Z,25.90
2019-02-12T21:55:20.202Z,26.00
2019-02-12T21:57:48.625Z,23.42
2019-02-12T22:00:16.917Z,23.73
2019-02-12T22:02:45.094Z,22.95
2019-02-12T22:05:13.509Z,21.82
2019-02-12T22:07:41.714Z,22.85
2019-02-12T22:10:12.058Z,21.40
2019-02-12T22:12:39.238Z,23.52
2019-02-12T22:15:10.323Z,27.73
2019-02-12T22:17:38.934Z,24.47
2019-02-12T22:20:08.449Z,25.30
2019-02-12T22:22:36.727Z,24.23
2019-02-12T22:25:05.115Z,26.82
2019-02-12T22:27:40.188Z,22.82
2019-02-12T22:30:04.023Z,23.92
2019-02-12T22:32:32.330Z,24.72
2019-02-12T22:35:00.790Z,23.10
2019-02-12T22:37:27.995Z,23.20
2019-02-12T22:39:56.254Z,28.67
2019-02-12T22:42:24.478Z,23.15
2019-02-12T22:44:52.975Z,23.95
2019-02-12T22:47:21.171Z,24.10
2019-02-12T22:49:48.438Z,23.95
2019-02-12T22:52:16.750Z,21.42
2019-02-12T22:54:44.823Z,26.82
2019-02-12T22:57:13.095Z,20.17
2019-02-12T22:59:41.423Z,23.52
2019-02-12T23:02:09.801Z,20.15
2019-02-12T23:04:37.910Z,21.97
2019-02-12T23:07:06.241Z,24.90
2019-02-12T23:09:34.591Z,21.77
2019-02-12T23:12:02.881Z,24.82
2019-02-12T23:14:31.874Z,21.10
2019-02-12T23:16:59.059Z,25.88
2019-02-12T23:19:26.240Z,23.10
2019-02-12T23:21:54.518Z,25.75
2019-02-12T23:24:22.692Z,24.10
2019-02-12T23:26:50.989Z,23.98
2019-02-12T23:29:19.299Z,24.35
2019-02-12T23:31:47.490Z,29.85
2019-02-12T23:34:15.766Z,25.92
2019-02-12T23:36:43.868Z,21.35
2019-02-12T23:39:12.346Z,25.55
2019-02-12T23:41:40.484Z,20.20
2019-02-12T23:44:07.775Z,22.13
2019-02-12T23:46:36.421Z,29.10
2019-02-12T23:49:05.660Z,32.80
2019-02-12T23:51:33.470Z,24.45
2019-02-12T23:54:01.883Z,19.82
2019-02-12T23:56:30.281Z,19.90
2019-02-12T23:58:59.229Z,23.80
